sensor_id;sensor_type;location;lat;lon;timestamp;pressure;altitude;pressure_sealevel;temperature;humidity
61908;BME280;47864;52.526;19.672;2023-02-05T00:00:18;102897.25;;;-4.74;100.00
61908;BME280;47864;52.526;19.672;2023-02-05T00:02:20;102869.59;;;-5.00;100.00
61908;BME280;47864;52.526;19.672;2023-02-05T00:04:21;102864.41;;;-5.00;100.00
61908;BME280;47864;52.526;19.672;2023-02-05T00:06:23;102881.69;;;-4.95;100.00
61908;BME280;47864;52.526;19.672;2023-02-05T00:08:24;102893.72;;;-5.01;100.00
61908;BME280;47864;52.526;19.672;2023-02-05T00:10:26;102878.16;;;-5.20;100.00
61908;BME280;47864;52.526;19.672;2023-02-05T00:12:27;102872.91;;;-5.45;100.00
61908;BME280;47864;52.526;19.672;2023-02-05T00:14:29;102878.09;;;-5.34;100.00
61908;BME280;47864;52.526;19.672;2023-02-05T00:16:30;102861.66;;;-5.54;100.00
61908;BME280;47864;52.526;19.672;2023-02-05T00:18:32;102903.97;;;-5.34;100.00
61908;BME280;47864;52.526;19.672;2023-02-05T00:20:33;102883.25;;;-5.46;100.00
61908;BME280;47864;52.526;19.672;2023-02-05T00:22:35;102884.84;;;-5.68;100.00
61908;BME280;47864;52.526;19.672;2023-02-05T00:24:36;102870.19;;;-5.70;100.00
61908;BME280;47864;52.526;19.672;2023-02-05T00:26:39;102891.84;;;-5.53;100.00
61908;BME280;47864;52.526;19.672;2023-02-05T00:28:41;102900.44;;;-5.50;100.00
61908;BME280;47864;52.526;19.672;2023-02-05T00:30:43;102902.94;;;-5.68;100.00
61908;BME280;47864;52.526;19.672;2023-02-05T00:32:45;102891.72;;;-5.71;100.00
61908;BME280;47864;52.526;19.672;2023-02-05T00:34:46;102895.22;;;-5.63;100.00
61908;BME280;47864;52.526;19.672;2023-02-05T00:36:48;102886.56;;;-5.67;100.00
61908;BME280;47864;52.526;19.672;2023-02-05T00:38:50;102883.91;;;-5.85;100.00
61908;BME280;47864;52.526;19.672;2023-02-05T00:40:51;102917.59;;;-5.70;100.00
61908;BME280;47864;52.526;19.672;2023-02-05T00:42:53;102918.41;;;-5.74;100.00
61908;BME280;47864;52.526;19.672;2023-02-05T00:44:55;102915.81;;;-5.79;100.00
61908;BME280;47864;52.526;19.672;2023-02-05T00:46:56;102919.25;;;-5.80;100.00
61908;BME280;47864;52.526;19.672;2023-02-05T00:48:58;102912.38;;;-5.75;100.00
61908;BME280;47864;52.526;19.672;2023-02-05T00:50:59;102919.25;;;-5.80;100.00
61908;BME280;47864;52.526;19.672;2023-02-05T00:53:01;102908.03;;;-5.88;100.00
61908;BME280;47864;52.526;19.672;2023-02-05T00:55:02;102914.03;;;-5.87;100.00
61908;BME280;47864;52.526;19.672;2023-02-05T00:57:04;102891.59;;;-6.02;100.00
61908;BME280;47864;52.526;19.672;2023-02-05T00:59:06;102896.69;;;-6.08;100.00
61908;BME280;47864;52.526;19.672;2023-02-05T01:01:07;102903.63;;;-5.99;100.00
61908;BME280;47864;52.526;19.672;2023-02-05T01:03:09;102884.66;;;-6.06;100.00
61908;BME280;47864;52.526;19.672;2023-02-05T01:05:10;102921.81;;;-5.83;100.00
61908;BME280;47864;52.526;19.672;2023-02-05T01:07:12;102897.47;;;-6.17;100.00
61908;BME280;47864;52.526;19.672;2023-02-05T01:09:13;102904.47;;;-6.03;100.00
61908;BME280;47864;52.526;19.672;2023-02-05T01:11:15;102899.28;;;-6.06;100.00
61908;BME280;47864;52.526;19.672;2023-02-05T01:13:17;102919.16;;;-5.98;100.00
61908;BME280;47864;52.526;19.672;2023-02-05T01:15:19;102929.44;;;-6.04;100.00
61908;BME280;47864;52.526;19.672;2023-02-05T01:17:21;102932.78;;;-6.16;100.00
61908;BME280;47864;52.526;19.672;2023-02-05T01:19:22;102919.72;;;-6.35;100.00
61908;BME280;47864;52.526;19.672;2023-02-05T01:21:24;102926.53;;;-6.42;100.00
61908;BME280;47864;52.526;19.672;2023-02-05T01:23:25;102887.59;;;-6.68;100.00
61908;BME280;47864;52.526;19.672;2023-02-05T01:25:27;102941.94;;;-6.49;100.00
61908;BME280;47864;52.526;19.672;2023-02-05T01:27:28;102916.84;;;-6.69;100.00
61908;BME280;47864;52.526;19.672;2023-02-05T01:29:30;102917.69;;;-6.67;100.00
61908;BME280;47864;52.526;19.672;2023-02-05T01:31:31;102945.31;;;-6.57;100.00
61908;BME280;47864;52.526;19.672;2023-02-05T01:33:34;102945.41;;;-6.52;100.00
61908;BME280;47864;52.526;19.672;2023-02-05T01:35:35;102938.34;;;-6.67;100.00
61908;BME280;47864;52.526;19.672;2023-02-05T01:37:37;102948.72;;;-6.62;100.00
61908;BME280;47864;52.526;19.672;2023-02-05T01:39:38;102951.19;;;-6.73;100.00
61908;BME280;47864;52.526;19.672;2023-02-05T01:41:40;102947.00;;;-6.62;100.00
61908;BME280;47864;52.526;19.672;2023-02-05T01:43:42;102927.94;;;-6.76;100.00
61908;BME280;47864;52.526;19.672;2023-02-05T01:45:50;102918.50;;;-6.74;100.00
61908;BME280;47864;52.526;19.672;2023-02-05T01:48:02;102943.53;;;-6.65;100.00
61908;BME280;47864;52.526;19.672;2023-02-05T01:50:03;102939.25;;;-6.63;100.00
61908;BME280;47864;52.526;19.672;2023-02-05T01:52:13;102934.16;;;-6.56;100.00
61908;BME280;47864;52.526;19.672;2023-02-05T01:54:17;102936.81;;;-6.51;100.00
61908;BME280;47864;52.526;19.672;2023-02-05T01:56:23;102936.78;;;-6.53;100.00
61908;BME280;47864;52.526;19.672;2023-02-05T01:58:30;102922.78;;;-6.74;100.00
61908;BME280;47864;52.526;19.672;2023-02-05T02:00:33;102915.03;;;-6.77;100.00
61908;BME280;47864;52.526;19.672;2023-02-05T02:02:35;102943.50;;;-6.70;100.00
61908;BME280;47864;52.526;19.672;2023-02-05T02:04:46;102915.66;;;-6.98;100.00
61908;BME280;47864;52.526;19.672;2023-02-05T02:06:50;102944.13;;;-6.92;100.00
61908;BME280;47864;52.526;19.672;2023-02-05T02:08:52;102919.97;;;-6.97;100.00
61908;BME280;47864;52.526;19.672;2023-02-05T02:10:54;102929.47;;;-6.93;100.00
61908;BME280;47864;52.526;19.672;2023-02-05T02:12:56;102958.16;;;-6.64;100.00
61908;BME280;47864;52.526;19.672;2023-02-05T02:15:01;102940.94;;;-6.65;100.00
61908;BME280;47864;52.526;19.672;2023-02-05T02:17:04;102942.69;;;-6.63;100.00
61908;BME280;47864;52.526;19.672;2023-02-05T02:19:16;102960.00;;;-6.54;100.00
61908;BME280;47864;52.526;19.672;2023-02-05T02:23:51;102968.53;;;-6.61;100.00
61908;BME280;47864;52.526;19.672;2023-02-05T02:26:31;102946.28;;;-6.47;100.00
61908;BME280;47864;52.526;19.672;2023-02-05T02:28:44;102972.34;;;-6.23;100.00
61908;BME280;47864;52.526;19.672;2023-02-05T02:31:16;102967.22;;;-6.17;100.00
61908;BME280;47864;52.526;19.672;2023-02-05T02:33:26;102968.06;;;-6.21;100.00
61908;BME280;47864;52.526;19.672;2023-02-05T02:35:51;102961.31;;;-6.03;100.00
61908;BME280;47864;52.526;19.672;2023-02-05T02:42:35;102921.72;;;-6.02;100.00
61908;BME280;47864;52.526;19.672;2023-02-05T02:44:45;102951.13;;;-5.79;100.00
61908;BME280;47864;52.526;19.672;2023-02-05T02:46:51;102948.59;;;-5.70;100.00
61908;BME280;47864;52.526;19.672;2023-02-05T02:48:57;102916.66;;;-5.80;100.00
61908;BME280;47864;52.526;19.672;2023-02-05T02:51:02;102909.72;;;-5.94;100.00
61908;BME280;47864;52.526;19.672;2023-02-05T02:53:11;102950.44;;;-5.52;100.00
61908;BME280;47864;52.526;19.672;2023-02-05T02:55:16;102933.31;;;-5.24;100.00
61908;BME280;47864;52.526;19.672;2023-02-05T02:57:20;102926.53;;;-5.00;100.00
61908;BME280;47864;52.526;19.672;2023-02-05T02:59:24;102930.03;;;-4.82;100.00
61908;BME280;47864;52.526;19.672;2023-02-05T03:01:30;102886.84;;;-5.00;100.00
61908;BME280;47864;52.526;19.672;2023-02-05T03:03:38;102920.53;;;-4.86;100.00
61908;BME280;47864;52.526;19.672;2023-02-05T03:05:41;102917.00;;;-5.02;100.00
61908;BME280;47864;52.526;19.672;2023-02-05T03:07:51;102936.84;;;-5.01;100.00
61908;BME280;47864;52.526;19.672;2023-02-05T03:10:19;102940.34;;;-4.85;100.00
61908;BME280;47864;52.526;19.672;2023-02-05T03:12:24;102947.97;;;-5.25;100.00
61908;BME280;47864;52.526;19.672;2023-02-05T03:14:26;102906.44;;;-5.58;100.00
61908;BME280;47864;52.526;19.672;2023-02-05T03:16:28;102922.09;;;-5.35;100.00
61908;BME280;47864;52.526;19.672;2023-02-05T03:18:30;102942.75;;;-5.39;100.00
61908;BME280;47864;52.526;19.672;2023-02-05T03:20:40;102950.56;;;-5.28;100.00
61908;BME280;47864;52.526;19.672;2023-02-05T03:22:43;102941.88;;;-5.39;100.00
61908;BME280;47864;52.526;19.672;2023-02-05T03:24:44;102950.47;;;-5.46;100.00
61908;BME280;47864;52.526;19.672;2023-02-05T03:26:46;102914.22;;;-5.54;100.00
61908;BME280;47864;52.526;19.672;2023-02-05T03:28:47;102908.28;;;-5.36;100.00
61908;BME280;47864;52.526;19.672;2023-02-05T03:30:58;102935.94;;;-5.17;100.00
61908;BME280;47864;52.526;19.672;2023-02-05T03:37:46;102925.59;;;-5.21;100.00
61908;BME280;47864;52.526;19.672;2023-02-05T03:40:16;102934.22;;;-5.19;100.00
61908;BME280;47864;52.526;19.672;2023-02-05T03:44:55;102928.13;;;-5.32;100.00
61908;BME280;47864;52.526;19.672;2023-02-05T03:47:20;102935.94;;;-5.15;100.00
61908;BME280;47864;52.526;19.672;2023-02-05T03:49:56;102941.13;;;-5.14;100.00
61908;BME280;47864;52.526;19.672;2023-02-05T03:52:11;102944.50;;;-5.31;100.00
61908;BME280;47864;52.526;19.672;2023-02-05T03:54:27;102932.31;;;-5.51;100.00
61908;BME280;47864;52.526;19.672;2023-02-05T03:58:48;102932.06;;;-5.99;100.00
61908;BME280;47864;52.526;19.672;2023-02-05T04:00:52;102940.66;;;-5.99;100.00
61908;BME280;47864;52.526;19.672;2023-02-05T04:02:53;102916.44;;;-6.15;100.00
61908;BME280;47864;52.526;19.672;2023-02-05T04:04:55;102953.59;;;-6.02;100.00
61908;BME280;47864;52.526;19.672;2023-02-05T04:06:57;102927.47;;;-6.34;100.00
61908;BME280;47864;52.526;19.672;2023-02-05T04:08:58;102937.00;;;-6.28;100.00
61908;BME280;47864;52.526;19.672;2023-02-05T04:11:00;102962.09;;;-6.12;100.00
61908;BME280;47864;52.526;19.672;2023-02-05T04:13:02;102928.34;;;-6.32;100.00
61908;BME280;47864;52.526;19.672;2023-02-05T04:15:04;102954.44;;;-6.03;100.00
61908;BME280;47864;52.526;19.672;2023-02-05T04:17:05;102961.38;;;-5.91;100.00
61908;BME280;47864;52.526;19.672;2023-02-05T04:19:07;102969.19;;;-5.82;100.00
61908;BME280;47864;52.526;19.672;2023-02-05T04:21:09;102959.69;;;-5.83;100.00
61908;BME280;47864;52.526;19.672;2023-02-05T04:23:10;102964.94;;;-5.72;100.00
61908;BME280;47864;52.526;19.672;2023-02-05T04:25:12;102945.88;;;-5.93;100.00
61908;BME280;47864;52.526;19.672;2023-02-05T04:27:13;102935.56;;;-5.91;100.00
61908;BME280;47864;52.526;19.672;2023-02-05T04:29:15;102965.81;;;-5.72;100.00
61908;BME280;47864;52.526;19.672;2023-02-05T04:31:16;102975.38;;;-5.62;100.00
61908;BME280;47864;52.526;19.672;2023-02-05T04:33:18;102940.84;;;-5.71;100.00
61908;BME280;47864;52.526;19.672;2023-02-05T04:35:19;102974.63;;;-5.44;100.00
61908;BME280;47864;52.526;19.672;2023-02-05T04:37:21;102956.38;;;-5.65;100.00
61908;BME280;47864;52.526;19.672;2023-02-05T04:39:22;102978.91;;;-5.42;100.00
61908;BME280;47864;52.526;19.672;2023-02-05T04:41:24;102953.88;;;-5.49;100.00
61908;BME280;47864;52.526;19.672;2023-02-05T04:43:26;102945.16;;;-5.67;100.00
61908;BME280;47864;52.526;19.672;2023-02-05T04:45:27;102977.25;;;-5.37;100.00
61908;BME280;47864;52.526;19.672;2023-02-05T04:47:29;102985.00;;;-5.33;100.00
61908;BME280;47864;52.526;19.672;2023-02-05T04:49:31;102982.44;;;-5.32;100.00
61908;BME280;47864;52.526;19.672;2023-02-05T04:51:33;102961.69;;;-5.41;100.00
61908;BME280;47864;52.526;19.672;2023-02-05T04:53:35;102984.25;;;-5.10;100.00
61908;BME280;47864;52.526;19.672;2023-02-05T04:55:36;102988.56;;;-5.15;100.00
61908;BME280;47864;52.526;19.672;2023-02-05T04:57:38;102970.44;;;-5.16;100.00
61908;BME280;47864;52.526;19.672;2023-02-05T04:59:39;102923.78;;;-5.39;100.00
61908;BME280;47864;52.526;19.672;2023-02-05T05:01:41;102974.81;;;-5.02;100.00
61908;BME280;47864;52.526;19.672;2023-02-05T05:03:43;102961.06;;;-4.90;100.00
61908;BME280;47864;52.526;19.672;2023-02-05T05:05:44;102964.53;;;-4.76;100.00
61908;BME280;47864;52.526;19.672;2023-02-05T05:07:46;102951.59;;;-4.76;100.00
61908;BME280;47864;52.526;19.672;2023-02-05T05:09:47;102967.16;;;-4.73;100.00
61908;BME280;47864;52.526;19.672;2023-02-05T05:11:51;102976.63;;;-4.82;100.00
61908;BME280;47864;52.526;19.672;2023-02-05T05:13:53;102982.66;;;-4.86;100.00
61908;BME280;47864;52.526;19.672;2023-02-05T05:15:55;102958.50;;;-4.81;100.00
61908;BME280;47864;52.526;19.672;2023-02-05T05:17:56;102930.84;;;-4.91;100.00
61908;BME280;47864;52.526;19.672;2023-02-05T05:19:58;102930.06;;;-4.67;100.00
61908;BME280;47864;52.526;19.672;2023-02-05T05:22:00;102944.75;;;-4.57;100.00
61908;BME280;47864;52.526;19.672;2023-02-05T05:24:01;102966.34;;;-4.47;100.00
61908;BME280;47864;52.526;19.672;2023-02-05T05:26:05;102962.84;;;-4.66;100.00
61908;BME280;47864;52.526;19.672;2023-02-05T05:28:07;102952.47;;;-4.78;100.00
61908;BME280;47864;52.526;19.672;2023-02-05T05:30:09;102929.13;;;-4.93;100.00
61908;BME280;47864;52.526;19.672;2023-02-05T05:32:12;102982.72;;;-4.61;100.00
61908;BME280;47864;52.526;19.672;2023-02-05T05:34:13;102981.88;;;-4.49;100.00
61908;BME280;47864;52.526;19.672;2023-02-05T05:36:16;102972.38;;;-4.48;100.00
61908;BME280;47864;52.526;19.672;2023-02-05T05:38:17;102981.91;;;-4.38;100.00
61908;BME280;47864;52.526;19.672;2023-02-05T05:40:19;102957.69;;;-4.52;100.00
61908;BME280;47864;52.526;19.672;2023-02-05T05:42:20;102972.41;;;-4.33;100.00
61908;BME280;47864;52.526;19.672;2023-02-05T05:44:22;102977.59;;;-4.16;100.00
61908;BME280;47864;52.526;19.672;2023-02-05T05:46:24;102961.16;;;-4.44;100.00
61908;BME280;47864;52.526;19.672;2023-02-05T05:48:26;102983.63;;;-4.27;100.00
61908;BME280;47864;52.526;19.672;2023-02-05T05:50:28;102962.94;;;-4.30;100.00
61908;BME280;47864;52.526;19.672;2023-02-05T05:52:29;102973.25;;;-4.28;100.00
61908;BME280;47864;52.526;19.672;2023-02-05T05:54:33;102973.31;;;-4.20;100.00
61908;BME280;47864;52.526;19.672;2023-02-05T05:56:34;102994.91;;;-4.12;100.00
61908;BME280;47864;52.526;19.672;2023-02-05T05:58:36;102964.63;;;-4.35;100.00
61908;BME280;47864;52.526;19.672;2023-02-05T06:00:38;102956.00;;;-4.32;100.00
61908;BME280;47864;52.526;19.672;2023-02-05T06:02:40;102997.50;;;-3.99;100.00
61908;BME280;47864;52.526;19.672;2023-02-05T06:04:41;102995.78;;;-3.88;100.00
61908;BME280;47864;52.526;19.672;2023-02-05T06:06:43;102971.56;;;-4.23;100.00
61908;BME280;47864;52.526;19.672;2023-02-05T06:08:44;102965.53;;;-4.13;100.00
61908;BME280;47864;52.526;19.672;2023-02-05T06:10:46;102933.53;;;-4.35;100.00
61908;BME280;47864;52.526;19.672;2023-02-05T06:12:47;102970.72;;;-4.07;100.00
61908;BME280;47864;52.526;19.672;2023-02-05T06:14:49;102981.06;;;-3.95;100.00
61908;BME280;47864;52.526;19.672;2023-02-05T06:16:51;102944.78;;;-4.28;100.00
61908;BME280;47864;52.526;19.672;2023-02-05T06:18:54;102984.50;;;-4.11;100.00
61908;BME280;47864;52.526;19.672;2023-02-05T06:20:56;102991.44;;;-4.13;100.00
61908;BME280;47864;52.526;19.672;2023-02-05T06:22:58;102970.69;;;-4.16;100.00
61908;BME280;47864;52.526;19.672;2023-02-05T06:24:59;102962.06;;;-4.19;100.00
61908;BME280;47864;52.526;19.672;2023-02-05T06:27:01;103004.38;;;-4.11;100.00
61908;BME280;47864;52.526;19.672;2023-02-05T06:29:02;102986.25;;;-4.11;100.00
61908;BME280;47864;52.526;19.672;2023-02-05T06:31:04;103000.09;;;-3.97;100.00
61908;BME280;47864;52.526;19.672;2023-02-05T06:33:06;103007.84;;;-4.11;100.00
61908;BME280;47864;52.526;19.672;2023-02-05T06:35:08;103005.28;;;-4.05;100.00
61908;BME280;47864;52.526;19.672;2023-02-05T06:37:09;102992.31;;;-4.05;100.00
61908;BME280;47864;52.526;19.672;2023-02-05T06:39:11;103008.72;;;-3.97;100.00
61908;BME280;47864;52.526;19.672;2023-02-05T06:41:12;103020.81;;;-4.06;100.00
61908;BME280;47864;52.526;19.672;2023-02-05T06:43:14;103016.50;;;-4.13;100.00
61908;BME280;47864;52.526;19.672;2023-02-05T06:45:16;103022.56;;;-4.04;100.00
61908;BME280;47864;52.526;19.672;2023-02-05T06:47:17;103008.72;;;-4.00;100.00
61908;BME280;47864;52.526;19.672;2023-02-05T06:49:19;103000.94;;;-4.01;100.00
61908;BME280;47864;52.526;19.672;2023-02-05T06:51:20;103009.56;;;-3.95;100.00
61908;BME280;47864;52.526;19.672;2023-02-05T06:53:22;103023.41;;;-3.64;100.00
61908;BME280;47864;52.526;19.672;2023-02-05T06:55:23;103026.88;;;-3.56;100.00
61908;BME280;47864;52.526;19.672;2023-02-05T06:57:25;103028.56;;;-3.44;100.00
61908;BME280;47864;52.526;19.672;2023-02-05T06:59:26;103019.97;;;-3.55;100.00
61908;BME280;47864;52.526;19.672;2023-02-05T07:01:28;103035.53;;;-3.64;100.00
61908;BME280;47864;52.526;19.672;2023-02-05T07:03:30;103019.97;;;-3.66;100.00
61908;BME280;47864;52.526;19.672;2023-02-05T07:05:33;103004.38;;;-3.54;100.00
61908;BME280;47864;52.526;19.672;2023-02-05T07:07:35;103032.91;;;-3.48;100.00
61908;BME280;47864;52.526;19.672;2023-02-05T07:09:36;103051.06;;;-3.57;100.00
61908;BME280;47864;52.526;19.672;2023-02-05T07:11:38;103031.19;;;-3.58;100.00
61908;BME280;47864;52.526;19.672;2023-02-05T07:13:39;103057.13;;;-3.56;100.00
61908;BME280;47864;52.526;19.672;2023-02-05T07:15:41;103050.22;;;-3.57;100.00
61908;BME280;47864;52.526;19.672;2023-02-05T07:17:42;103029.44;;;-3.60;100.00
61908;BME280;47864;52.526;19.672;2023-02-05T07:19:44;103016.50;;;-3.68;100.00
61908;BME280;47864;52.526;19.672;2023-02-05T07:21:45;103042.41;;;-3.50;100.00
61908;BME280;47864;52.526;19.672;2023-02-05T07:23:47;103064.00;;;-3.29;100.00
61908;BME280;47864;52.526;19.672;2023-02-05T07:25:48;103053.59;;;-3.20;100.00
61908;BME280;47864;52.526;19.672;2023-02-05T07:27:50;103052.75;;;-3.16;100.00
61908;BME280;47864;52.526;19.672;2023-02-05T07:29:51;103083.91;;;-3.16;100.00
61908;BME280;47864;52.526;19.672;2023-02-05T07:31:53;103063.16;;;-3.33;100.00
61908;BME280;47864;52.526;19.672;2023-02-05T07:33:54;103088.22;;;-3.17;100.00
61908;BME280;47864;52.526;19.672;2023-02-05T07:35:56;103088.22;;;-3.18;100.00
61908;BME280;47864;52.526;19.672;2023-02-05T07:37:57;103088.22;;;-3.18;100.00
61908;BME280;47864;52.526;19.672;2023-02-05T07:39:59;103057.94;;;-3.21;100.00
61908;BME280;47864;52.526;19.672;2023-02-05T07:42:00;103092.50;;;-2.90;100.00
61908;BME280;47864;52.526;19.672;2023-02-05T07:44:02;103091.63;;;-2.90;100.00
61908;BME280;47864;52.526;19.672;2023-02-05T07:46:09;103056.22;;;-3.16;100.00
61908;BME280;47864;52.526;19.672;2023-02-05T07:48:11;103062.28;;;-3.14;100.00
61908;BME280;47864;52.526;19.672;2023-02-05T07:50:12;103095.97;;;-2.94;100.00
61908;BME280;47864;52.526;19.672;2023-02-05T07:52:14;103076.97;;;-3.17;100.00
61908;BME280;47864;52.526;19.672;2023-02-05T07:54:15;103102.06;;;-3.05;100.00
61908;BME280;47864;52.526;19.672;2023-02-05T07:56:17;103104.66;;;-3.10;100.00
61908;BME280;47864;52.526;19.672;2023-02-05T07:58:19;103102.06;;;-3.19;100.00
61908;BME280;47864;52.526;19.672;2023-02-05T08:00:21;103093.44;;;-3.30;100.00
61908;BME280;47864;52.526;19.672;2023-02-05T08:02:22;103121.94;;;-3.01;100.00
61908;BME280;47864;52.526;19.672;2023-02-05T08:04:24;103119.34;;;-2.91;100.00
61908;BME280;47864;52.526;19.672;2023-02-05T08:06:26;103103.75;;;-2.94;100.00
61908;BME280;47864;52.526;19.672;2023-02-05T08:08:27;103105.50;;;-3.02;100.00
61908;BME280;47864;52.526;19.672;2023-02-05T08:10:29;103125.41;;;-2.89;100.00
61908;BME280;47864;52.526;19.672;2023-02-05T08:12:31;103093.38;;;-2.91;100.00
61908;BME280;47864;52.526;19.672;2023-02-05T08:14:34;103122.75;;;-2.77;100.00
61908;BME280;47864;52.526;19.672;2023-02-05T08:16:35;103122.72;;;-2.58;100.00
61908;BME280;47864;52.526;19.672;2023-02-05T08:18:37;103120.09;;;-2.58;100.00
61908;BME280;47864;52.526;19.672;2023-02-05T08:20:38;103089.00;;;-2.75;100.00
61908;BME280;47864;52.526;19.672;2023-02-05T08:22:41;103100.22;;;-2.65;100.00
61908;BME280;47864;52.526;19.672;2023-02-05T08:24:43;103083.75;;;-2.64;100.00
61908;BME280;47864;52.526;19.672;2023-02-05T08:26:44;103109.72;;;-2.63;100.00
61908;BME280;47864;52.526;19.672;2023-02-05T08:28:46;103127.00;;;-2.50;100.00
61908;BME280;47864;52.526;19.672;2023-02-05T08:30:47;103110.53;;;-2.52;100.00
61908;BME280;47864;52.526;19.672;2023-02-05T08:32:50;103137.31;;;-2.25;100.00
61908;BME280;47864;52.526;19.672;2023-02-05T08:34:51;103139.06;;;-2.37;100.00
61908;BME280;47864;52.526;19.672;2023-02-05T08:36:53;103120.03;;;-2.42;100.00
61908;BME280;47864;52.526;19.672;2023-02-05T08:38:54;103139.91;;;-2.27;100.00
61908;BME280;47864;52.526;19.672;2023-02-05T08:40:56;103145.06;;;-2.15;100.00
61908;BME280;47864;52.526;19.672;2023-02-05T08:42:58;103104.41;;;-2.37;100.00
61908;BME280;47864;52.526;19.672;2023-02-05T08:44:59;103124.94;;;-1.88;100.00
61908;BME280;47864;52.526;19.672;2023-02-05T08:47:01;103134.53;;;-1.97;100.00
61908;BME280;47864;52.526;19.672;2023-02-05T08:49:03;103119.88;;;-2.07;100.00
61908;BME280;47864;52.526;19.672;2023-02-05T08:51:04;103145.88;;;-2.10;100.00
61908;BME280;47864;52.526;19.672;2023-02-05T08:53:06;103141.56;;;-2.14;100.00
61908;BME280;47864;52.526;19.672;2023-02-05T08:55:08;103151.91;;;-2.00;100.00
61908;BME280;47864;52.526;19.672;2023-02-05T08:57:09;103143.28;;;-2.10;100.00
61908;BME280;47864;52.526;19.672;2023-02-05T08:59:11;103158.06;;;-2.18;100.00
61908;BME280;47864;52.526;19.672;2023-02-05T09:01:14;103127.81;;;-2.36;100.00
61908;BME280;47864;52.526;19.672;2023-02-05T09:03:16;103150.31;;;-2.38;100.00
61908;BME280;47864;52.526;19.672;2023-02-05T09:05:18;103151.13;;;-2.16;100.00
61908;BME280;47864;52.526;19.672;2023-02-05T09:07:19;103171.81;;;-1.95;100.00
61908;BME280;47864;52.526;19.672;2023-02-05T09:09:21;103156.25;;;-2.01;100.00
61908;BME280;47864;52.526;19.672;2023-02-05T09:11:23;103172.66;;;-1.91;100.00
61908;BME280;47864;52.526;19.672;2023-02-05T09:13:24;103119.94;;;-2.19;100.00
61908;BME280;47864;52.526;19.672;2023-02-05T09:15:26;103165.78;;;-1.98;100.00
61908;BME280;47864;52.526;19.672;2023-02-05T09:17:27;103161.41;;;-1.96;100.00
61908;BME280;47864;52.526;19.672;2023-02-05T09:19:29;103171.81;;;-1.95;100.00
61908;BME280;47864;52.526;19.672;2023-02-05T09:21:33;103139.81;;;-2.09;100.00
61908;BME280;47864;52.526;19.672;2023-02-05T09:23:35;103156.16;;;-1.88;100.00
61908;BME280;47864;52.526;19.672;2023-02-05T09:25:38;103128.56;;;-2.11;100.00
61908;BME280;47864;52.526;19.672;2023-02-05T09:27:40;103159.56;;;-1.76;100.00
61908;BME280;47864;52.526;19.672;2023-02-05T09:29:42;103127.59;;;-1.92;100.00
61908;BME280;47864;52.526;19.672;2023-02-05T09:31:43;103159.47;;;-1.58;100.00
61908;BME280;47864;52.526;19.672;2023-02-05T09:33:45;103160.16;;;-1.39;100.00
61908;BME280;47864;52.526;19.672;2023-02-05T09:35:47;103138.53;;;-1.44;100.00
61908;BME280;47864;52.526;19.672;2023-02-05T09:37:48;103120.09;;;-1.20;100.00
61908;BME280;47864;52.526;19.672;2023-02-05T09:39:50;103153.78;;;-1.01;100.00
61908;BME280;47864;52.526;19.672;2023-02-05T09:42:13;103153.00;;;-1.08;100.00
61908;BME280;47864;52.526;19.672;2023-02-05T09:44:42;103152.50;;;-0.59;100.00
61908;BME280;47864;52.526;19.672;2023-02-05T09:49:07;103160.47;;;-0.74;97.51
61908;BME280;47864;52.526;19.672;2023-02-05T09:51:13;103152.78;;;-0.88;96.10
61908;BME280;47864;52.526;19.672;2023-02-05T09:53:17;103160.41;;;-0.67;96.81
61908;BME280;47864;52.526;19.672;2023-02-05T09:55:26;103160.59;;;-0.85;100.00
61908;BME280;47864;52.526;19.672;2023-02-05T09:57:33;103153.50;;;-0.74;100.00
61908;BME280;47864;52.526;19.672;2023-02-05T09:59:35;103150.56;;;-0.42;99.20
61908;BME280;47864;52.526;19.672;2023-02-05T10:01:49;103141.59;;;-0.20;95.40
61908;BME280;47864;52.526;19.672;2023-02-05T10:03:57;103131.13;;;-0.18;92.32
61908;BME280;47864;52.526;19.672;2023-02-05T10:08:24;103132.16;;;-1.11;92.72
61908;BME280;47864;52.526;19.672;2023-02-05T10:10:46;103134.44;;;-0.79;93.11
61908;BME280;47864;52.526;19.672;2023-02-05T10:13:03;103144.44;;;-0.40;92.04
61908;BME280;47864;52.526;19.672;2023-02-05T10:17:55;103134.84;;;-1.22;96.27
61908;BME280;47864;52.526;19.672;2023-02-05T10:27:31;103135.13;;;-0.59;90.11
61908;BME280;47864;52.526;19.672;2023-02-05T10:31:44;103104.75;;;-0.63;87.68
61908;BME280;47864;52.526;19.672;2023-02-05T10:33:51;103113.22;;;-0.46;85.74
61908;BME280;47864;52.526;19.672;2023-02-05T10:36:02;103117.84;;;-0.70;90.20
61908;BME280;47864;52.526;19.672;2023-02-05T10:38:12;103103.19;;;-0.09;86.31
61908;BME280;47864;52.526;19.672;2023-02-05T10:40:20;103089.88;;;-0.55;86.55
61908;BME280;47864;52.526;19.672;2023-02-05T10:42:36;103112.81;;;-0.14;85.48
61908;BME280;47864;52.526;19.672;2023-02-05T10:44:43;103110.59;;;-0.43;83.73
61908;BME280;47864;52.526;19.672;2023-02-05T10:46:45;103092.47;;;-0.53;87.53
61908;BME280;47864;52.526;19.672;2023-02-05T10:48:58;103106.03;;;-0.27;84.61
61908;BME280;47864;52.526;19.672;2023-02-05T10:51:04;103112.53;;;-0.58;86.74
61908;BME280;47864;52.526;19.672;2023-02-05T10:53:07;103082.34;;;-0.81;87.58
61908;BME280;47864;52.526;19.672;2023-02-05T10:55:12;103108.31;;;-0.70;86.88
61908;BME280;47864;52.526;19.672;2023-02-05T10:57:19;103105.56;;;-0.59;87.01
61908;BME280;47864;52.526;19.672;2023-02-05T10:59:26;103080.75;;;-0.92;87.08
61908;BME280;47864;52.526;19.672;2023-02-05T11:01:34;103097.88;;;-0.70;88.87
61908;BME280;47864;52.526;19.672;2023-02-05T11:03:37;103077.91;;;-0.71;88.78